createdAt,value
2018-03-08T00:00:56.740Z,2.83
2018-03-08T00:03:24.143Z,3.07
2018-03-08T00:05:51.548Z,3.50
2018-03-08T00:08:18.937Z,3.53
2018-03-08T00:10:46.376Z,4.12
2018-03-08T00:13:13.812Z,4.50
2018-03-08T00:15:41.180Z,4.30
2018-03-08T00:18:08.591Z,6.85
2018-03-08T00:20:36.002Z,3.90
2018-03-08T00:23:03.389Z,4.70
2018-03-08T00:25:30.799Z,3.57
2018-03-08T00:27:58.209Z,3.33
2018-03-08T00:30:25.610Z,3.25
2018-03-08T00:32:53.005Z,4.12
2018-03-08T00:35:20.415Z,2.80
2018-03-08T00:37:47.801Z,2.60
2018-03-08T00:40:15.209Z,2.60
2018-03-08T00:42:42.609Z,2.87
2018-03-08T00:45:10.027Z,3.87
2018-03-08T00:47:37.418Z,2.75
2018-03-08T00:50:04.824Z,2.60
2018-03-08T00:52:32.214Z,2.70
2018-03-08T00:54:59.619Z,2.50
2018-03-08T00:57:27.021Z,2.40
2018-03-08T00:59:54.424Z,2.77
2018-03-08T01:02:21.841Z,2.80
2018-03-08T01:04:50.152Z,2.62
2018-03-08T01:07:17.556Z,2.90
2018-03-08T01:09:44.971Z,2.43
2018-03-08T01:12:12.360Z,2.53
2018-03-08T01:14:39.791Z,2.30
2018-03-08T01:17:07.177Z,2.07
2018-03-08T01:19:34.578Z,2.50
2018-03-08T01:22:01.972Z,2.63
2018-03-08T01:24:29.384Z,2.90
2018-03-08T01:26:56.789Z,3.03
2018-03-08T01:29:24.192Z,2.97
2018-03-08T01:31:51.596Z,2.27
2018-03-08T01:34:19.001Z,2.90
2018-03-08T01:36:46.427Z,3.30
2018-03-08T01:39:13.833Z,3.20
2018-03-08T01:41:41.241Z,2.80
2018-03-08T01:44:08.638Z,2.63
2018-03-08T01:46:36.041Z,3.63
2018-03-08T01:49:03.446Z,3.15
2018-03-08T01:51:30.845Z,2.70
2018-03-08T01:53:58.232Z,2.10
2018-03-08T01:56:25.638Z,3.17
2018-03-08T01:58:53.036Z,2.53
2018-03-08T02:01:20.433Z,3.00
2018-03-08T02:03:47.836Z,2.30
2018-03-08T02:06:15.248Z,3.20
2018-03-08T02:08:42.653Z,2.67
2018-03-08T02:11:10.054Z,2.27
2018-03-08T02:13:37.459Z,2.47
2018-03-08T02:16:04.865Z,3.00
2018-03-08T02:18:32.262Z,2.50
2018-03-08T02:20:59.676Z,2.10
2018-03-08T02:23:27.066Z,2.37
2018-03-08T02:25:54.473Z,2.33
2018-03-08T02:28:21.870Z,3.78
2018-03-08T02:30:49.285Z,4.03
2018-03-08T02:33:16.677Z,3.90
2018-03-08T02:35:44.086Z,4.30
2018-03-08T02:38:11.484Z,4.00
2018-03-08T02:40:38.881Z,3.33
2018-03-08T02:43:06.297Z,3.53
2018-03-08T02:45:33.691Z,3.40
2018-03-08T02:48:01.110Z,3.43
2018-03-08T02:50:28.511Z,2.77
2018-03-08T02:52:55.921Z,2.80
2018-03-08T02:55:23.947Z,3.22
2018-03-08T02:57:51.357Z,2.47
2018-03-08T03:00:18.763Z,3.00
2018-03-08T03:02:46.177Z,3.08
2018-03-08T03:05:13.578Z,3.60
2018-03-08T03:07:40.982Z,3.03
2018-03-08T03:10:08.381Z,2.62
2018-03-08T03:12:35.783Z,2.77
2018-03-08T03:15:03.173Z,3.30
2018-03-08T03:17:30.589Z,2.83
2018-03-08T03:19:57.989Z,3.63
2018-03-08T03:22:25.417Z,3.23
2018-03-08T03:24:52.809Z,2.70
2018-03-08T03:27:20.227Z,2.77
2018-03-08T03:29:47.621Z,3.50
2018-03-08T03:32:15.029Z,2.80
2018-03-08T03:34:42.416Z,3.30
2018-03-08T03:37:09.820Z,3.60
2018-03-08T03:39:37.227Z,3.00
2018-03-08T03:42:04.621Z,2.78
2018-03-08T03:44:32.026Z,3.53
2018-03-08T03:46:59.425Z,3.23
2018-03-08T03:49:26.831Z,3.30
2018-03-08T03:51:54.227Z,3.07
2018-03-08T03:54:21.629Z,3.40
2018-03-08T03:56:49.033Z,2.85
2018-03-08T03:59:16.454Z,3.13
2018-03-08T04:01:43.846Z,3.43
2018-03-08T04:04:11.257Z,3.07
2018-03-08T04:06:38.653Z,2.60
2018-03-08T04:09:06.063Z,3.40
2018-03-08T04:11:33.457Z,2.80
2018-03-08T04:14:00.874Z,2.40
2018-03-08T04:16:28.269Z,3.70
2018-03-08T04:18:55.685Z,3.10
2018-03-08T04:21:23.066Z,2.80
2018-03-08T04:23:50.486Z,2.30
2018-03-08T04:26:17.881Z,2.80
2018-03-08T04:28:45.286Z,3.10
2018-03-08T04:31:12.686Z,3.10
2018-03-08T04:33:40.090Z,3.10
2018-03-08T04:36:07.497Z,3.15
2018-03-08T04:38:34.899Z,3.00
2018-03-08T04:41:02.309Z,2.17
2018-03-08T04:43:29.699Z,3.40
2018-03-08T04:45:58.153Z,2.72
2018-03-08T04:48:25.552Z,2.90
2018-03-08T04:50:52.954Z,3.50
2018-03-08T04:53:20.356Z,2.80
2018-03-08T04:55:47.776Z,3.27
2018-03-08T04:58:15.165Z,3.23
2018-03-08T05:00:42.581Z,3.97
2018-03-08T05:03:09.974Z,3.00
2018-03-08T05:05:37.393Z,3.00
2018-03-08T05:08:04.782Z,3.28
2018-03-08T05:10:32.210Z,3.30
2018-03-08T05:12:59.596Z,3.00
2018-03-08T05:15:26.999Z,2.77
2018-03-08T05:17:54.386Z,2.87
2018-03-08T05:20:21.797Z,3.47
2018-03-08T05:22:49.198Z,3.53
2018-03-08T05:25:17.476Z,2.93
2018-03-08T05:27:44.877Z,2.33
2018-03-08T05:30:12.289Z,2.63
2018-03-08T05:32:39.688Z,3.15
2018-03-08T05:35:07.103Z,3.70
2018-03-08T05:37:34.496Z,3.40
2018-03-08T05:40:01.967Z,2.93
2018-03-08T05:42:30.321Z,4.70
2018-03-08T05:44:57.737Z,3.70
2018-03-08T05:47:25.121Z,3.07
2018-03-08T05:49:52.535Z,3.43
2018-03-08T05:52:19.930Z,3.70
2018-03-08T05:54:47.317Z,3.30
2018-03-08T05:57:14.736Z,3.28
2018-03-08T05:59:42.140Z,3.50
2018-03-08T06:02:09.697Z,3.40
2018-03-08T06:04:37.171Z,4.40
2018-03-08T06:07:04.566Z,3.70
2018-03-08T06:09:31.957Z,3.47
2018-03-08T06:11:59.362Z,3.60
2018-03-08T06:14:26.758Z,3.30
2018-03-08T06:16:54.188Z,3.53
2018-03-08T06:19:21.589Z,3.87
2018-03-08T06:21:48.985Z,3.03
2018-03-08T06:24:16.378Z,3.63
2018-03-08T06:26:43.807Z,4.53
2018-03-08T06:29:11.202Z,3.13
2018-03-08T06:31:38.606Z,3.37
2018-03-08T06:34:06.001Z,3.93
2018-03-08T06:36:33.404Z,4.20
2018-03-08T06:39:00.863Z,3.73
2018-03-08T06:41:28.217Z,4.47
2018-03-08T06:43:55.631Z,4.80
2018-03-08T06:46:23.034Z,3.60
2018-03-08T06:48:50.436Z,4.40
2018-03-08T06:51:18.058Z,4.80
2018-03-08T06:53:45.453Z,5.03
2018-03-08T06:56:12.862Z,7.30
2018-03-08T06:58:40.782Z,5.67
2018-03-08T07:01:08.174Z,3.70
2018-03-08T07:03:35.589Z,3.75
2018-03-08T07:06:03.979Z,3.35
2018-03-08T07:08:31.398Z,3.27
2018-03-08T07:10:58.793Z,3.20
2018-03-08T07:13:26.285Z,3.27
2018-03-08T07:15:53.690Z,3.20
2018-03-08T07:18:21.096Z,2.93
2018-03-08T07:20:48.511Z,3.47
2018-03-08T07:23:15.932Z,4.23
2018-03-08T07:25:43.314Z,3.50
2018-03-08T07:28:10.728Z,3.60
2018-03-08T07:30:38.150Z,2.67
2018-03-08T07:33:05.561Z,3.83
2018-03-08T07:35:32.960Z,2.87
2018-03-08T07:38:00.361Z,3.10
2018-03-08T07:40:27.779Z,2.27
2018-03-08T07:42:55.178Z,2.00
2018-03-08T07:45:22.575Z,2.92
2018-03-08T07:47:49.989Z,2.60
2018-03-08T07:50:17.380Z,2.17
2018-03-08T07:52:44.791Z,2.80
2018-03-08T07:55:12.189Z,2.53
2018-03-08T07:57:39.784Z,2.70
2018-03-08T08:00:07.191Z,2.93
2018-03-08T08:02:34.593Z,2.87
2018-03-08T08:05:13.909Z,2.27
2018-03-08T08:07:53.116Z,1.70
2018-03-08T08:10:20.510Z,2.03
2018-03-08T08:12:47.916Z,1.92
2018-03-08T08:15:15.314Z,1.90
2018-03-08T08:17:42.729Z,2.10
2018-03-08T08:20:10.121Z,2.43
2018-03-08T08:22:37.605Z,1.97
2018-03-08T08:25:05.006Z,2.70
2018-03-08T08:27:32.397Z,2.63
2018-03-08T08:29:59.818Z,1.87
2018-03-08T08:32:27.215Z,3.00
2018-03-08T08:34:54.649Z,1.40
2018-03-08T08:37:22.053Z,1.80
2018-03-08T08:39:49.464Z,6.27
2018-03-08T08:42:16.861Z,2.37
2018-03-08T08:44:44.269Z,1.73
2018-03-08T08:47:11.671Z,1.80
2018-03-08T08:49:39.078Z,1.47
2018-03-08T08:52:06.491Z,1.20
2018-03-08T08:54:33.975Z,1.90
2018-03-08T08:57:01.312Z,1.50
2018-03-08T08:59:28.725Z,1.30
2018-03-08T09:01:56.160Z,2.00
2018-03-08T09:04:23.563Z,1.70
2018-03-08T09:06:50.956Z,1.50
2018-03-08T09:09:18.361Z,2.17
2018-03-08T09:11:45.759Z,1.60
2018-03-08T09:14:13.162Z,1.70
2018-03-08T09:16:40.577Z,1.50
2018-03-08T09:19:08.001Z,1.20
2018-03-08T09:21:35.401Z,1.50
2018-03-08T09:24:02.813Z,1.40
2018-03-08T09:26:30.230Z,1.40
2018-03-08T09:28:57.630Z,1.50
2018-03-08T09:31:25.055Z,1.30
2018-03-08T09:33:52.470Z,1.37
2018-03-08T09:36:19.874Z,1.33
2018-03-08T09:38:47.263Z,1.30
2018-03-08T09:41:14.687Z,1.35
2018-03-08T09:43:42.073Z,1.20
2018-03-08T09:46:09.511Z,1.40
2018-03-08T09:48:36.905Z,1.12
2018-03-08T09:51:04.314Z,1.40
2018-03-08T09:53:32.470Z,1.43
2018-03-08T09:55:59.874Z,1.10
2018-03-08T09:58:27.266Z,1.20
2018-03-08T10:00:54.669Z,1.30
2018-03-08T10:03:22.081Z,1.33
2018-03-08T10:05:49.482Z,1.40
2018-03-08T10:08:16.881Z,1.20
2018-03-08T10:10:44.289Z,1.40
2018-03-08T10:13:11.872Z,1.50
2018-03-08T10:15:39.269Z,1.30
2018-03-08T10:18:06.664Z,1.20
2018-03-08T10:20:34.069Z,1.00
2018-03-08T10:23:01.463Z,1.30
2018-03-08T10:25:28.860Z,1.20
2018-03-08T10:27:56.264Z,1.27
2018-03-08T10:30:23.675Z,1.47
2018-03-08T10:32:51.082Z,1.47
2018-03-08T10:35:18.486Z,1.23
2018-03-08T10:37:45.933Z,1.33
2018-03-08T10:40:13.370Z,1.50
2018-03-08T10:45:08.234Z,1.50
2018-03-08T10:47:35.609Z,1.10
2018-03-08T10:50:03.010Z,1.60
2018-03-08T10:52:30.422Z,1.30
2018-03-08T10:54:57.830Z,1.50
2018-03-08T10:57:25.261Z,1.03
2018-03-08T10:59:52.656Z,1.00
2018-03-08T11:02:25.777Z,1.65
2018-03-08T11:04:59.150Z,1.00
2018-03-08T11:07:26.567Z,0.97
2018-03-08T11:09:53.958Z,1.20
2018-03-08T11:12:21.371Z,1.30
2018-03-08T11:14:48.762Z,1.20
2018-03-08T11:17:16.176Z,1.00
2018-03-08T11:19:43.773Z,1.40
2018-03-08T11:22:11.205Z,1.70
2018-03-08T11:24:38.618Z,2.10
2018-03-08T11:27:06.020Z,0.90
2018-03-08T11:29:33.430Z,1.40
2018-03-08T11:32:00.848Z,1.00
2018-03-08T11:34:28.262Z,1.57
2018-03-08T11:36:56.010Z,1.00
2018-03-08T11:39:23.414Z,1.00
2018-03-08T11:41:50.849Z,0.90
2018-03-08T11:44:18.260Z,0.90
2018-03-08T11:46:45.665Z,1.00
2018-03-08T11:49:13.069Z,0.93
2018-03-08T11:51:40.478Z,0.80
2018-03-08T11:54:07.878Z,0.77
2018-03-08T11:56:35.282Z,0.77
2018-03-08T11:59:02.686Z,1.12
2018-03-08T12:01:30.094Z,0.70
2018-03-08T12:03:57.506Z,0.90
2018-03-08T12:06:24.914Z,0.70
2018-03-08T12:08:52.321Z,0.80
2018-03-08T12:11:19.928Z,1.20
2018-03-08T12:13:47.350Z,2.47
2018-03-08T12:16:15.314Z,1.10
2018-03-08T12:18:42.722Z,0.90
2018-03-08T12:21:10.121Z,1.10
2018-03-08T12:23:37.533Z,0.90
2018-03-08T12:26:04.937Z,1.10
2018-03-08T12:28:32.344Z,0.73
2018-03-08T12:30:59.742Z,1.00
2018-03-08T12:33:27.157Z,1.00
2018-03-08T12:35:54.553Z,1.10
2018-03-08T12:38:21.960Z,1.33
2018-03-08T12:40:49.359Z,1.60
2018-03-08T12:43:16.773Z,1.23
2018-03-08T12:45:44.179Z,0.90
2018-03-08T12:48:11.583Z,0.93
2018-03-08T12:50:38.985Z,1.00
2018-03-08T12:53:06.396Z,1.10
2018-03-08T12:55:33.800Z,0.90
2018-03-08T12:58:01.221Z,1.27
2018-03-08T13:00:28.620Z,1.00
2018-03-08T13:02:56.029Z,1.13
2018-03-08T13:05:23.435Z,1.40
2018-03-08T13:07:50.848Z,1.00
2018-03-08T13:10:18.257Z,1.20
2018-03-08T13:12:45.654Z,1.00
2018-03-08T13:15:13.086Z,0.90
2018-03-08T13:17:40.473Z,1.00
2018-03-08T13:20:07.883Z,0.93
2018-03-08T13:22:35.289Z,0.90
2018-03-08T13:25:02.700Z,1.00
2018-03-08T13:27:30.104Z,0.95
2018-03-08T13:29:57.513Z,0.80
2018-03-08T13:32:24.917Z,0.90
2018-03-08T13:34:52.330Z,1.30
2018-03-08T13:37:19.731Z,1.00
2018-03-08T13:39:47.818Z,2.17
2018-03-08T13:42:15.213Z,0.80
2018-03-08T13:44:42.638Z,1.17
2018-03-08T13:47:10.074Z,1.00
2018-03-08T13:49:37.912Z,1.20
2018-03-08T13:52:05.312Z,1.20
2018-03-08T13:54:32.730Z,0.80
2018-03-08T13:57:00.584Z,1.95
2018-03-08T13:59:27.980Z,0.90
2018-03-08T14:01:55.389Z,1.00
2018-03-08T14:04:22.792Z,1.30
2018-03-08T14:06:50.216Z,1.20
2018-03-08T14:09:18.637Z,0.90
2018-03-08T14:11:46.061Z,0.80
2018-03-08T14:14:13.460Z,1.40
2018-03-08T14:16:40.862Z,1.20
2018-03-08T14:19:08.281Z,1.40
2018-03-08T14:21:35.697Z,1.20
2018-03-08T14:24:03.095Z,1.30
2018-03-08T14:26:30.514Z,1.27
2018-03-08T14:28:57.917Z,1.20
2018-03-08T14:31:25.332Z,1.20
2018-03-08T14:33:52.733Z,1.33
2018-03-08T14:36:20.153Z,1.30
2018-03-08T14:38:47.545Z,0.97
2018-03-08T14:41:14.962Z,1.00
2018-03-08T14:43:42.363Z,1.63
2018-03-08T14:46:09.777Z,1.00
2018-03-08T14:48:37.172Z,0.90
2018-03-08T14:51:04.595Z,1.10
2018-03-08T14:53:31.994Z,0.85
2018-03-08T14:55:59.405Z,0.80
2018-03-08T14:58:26.801Z,1.20
2018-03-08T15:00:54.555Z,1.58
2018-03-08T15:03:21.966Z,1.00
2018-03-08T15:05:49.376Z,0.85
2018-03-08T15:08:16.782Z,0.87
2018-03-08T15:10:44.182Z,0.90
2018-03-08T15:13:11.613Z,1.10
2018-03-08T15:15:39.005Z,1.00
2018-03-08T15:18:06.418Z,1.00
2018-03-08T15:20:33.836Z,1.00
2018-03-08T15:23:01.263Z,0.93
2018-03-08T15:25:28.670Z,1.40
2018-03-08T15:27:56.082Z,1.30
2018-03-08T15:30:23.477Z,1.37
2018-03-08T15:32:51.269Z,0.60
2018-03-08T15:35:18.665Z,0.80
2018-03-08T15:37:46.094Z,0.70
2018-03-08T15:40:13.489Z,1.00
2018-03-08T15:42:40.901Z,0.90
2018-03-08T15:45:08.303Z,0.90
2018-03-08T15:47:35.710Z,0.70
2018-03-08T15:50:03.113Z,0.83
2018-03-08T15:52:30.522Z,1.00
2018-03-08T15:54:57.926Z,0.80
2018-03-08T15:57:25.660Z,0.80
2018-03-08T15:59:53.072Z,0.98
2018-03-08T16:02:25.514Z,1.03
2018-03-08T16:04:52.905Z,0.80
2018-03-08T16:10:40.059Z,0.85
2018-03-08T16:13:07.473Z,0.73
2018-03-08T16:15:34.880Z,0.70
2018-03-08T16:18:02.280Z,0.97
2018-03-08T16:20:29.681Z,0.80
2018-03-08T16:22:57.101Z,0.90
2018-03-08T16:25:24.502Z,0.77
2018-03-08T16:27:51.959Z,0.83
2018-03-08T16:30:19.374Z,0.90
2018-03-08T16:32:46.792Z,0.90
2018-03-08T16:35:14.213Z,0.90
2018-03-08T16:37:41.620Z,0.80
2018-03-08T16:40:09.040Z,0.80
2018-03-08T16:42:36.441Z,1.00
2018-03-08T16:45:03.876Z,1.07
2018-03-08T16:47:31.273Z,1.10
2018-03-08T16:49:58.680Z,1.23
2018-03-08T16:52:26.080Z,0.97
2018-03-08T16:54:54.133Z,1.05
2018-03-08T16:57:21.564Z,1.27
2018-03-08T16:59:48.947Z,1.00
2018-03-08T17:02:16.358Z,0.93
2018-03-08T17:04:43.770Z,1.10
2018-03-08T17:07:11.214Z,0.83
2018-03-08T17:09:38.609Z,1.10
2018-03-08T17:12:06.012Z,1.20
2018-03-08T17:14:33.461Z,1.10
2018-03-08T17:17:00.829Z,1.55
2018-03-08T17:19:28.243Z,1.27
2018-03-08T17:21:55.689Z,1.30
2018-03-08T17:24:23.062Z,1.27
2018-03-08T17:26:50.475Z,1.10
2018-03-08T17:29:17.895Z,1.20
2018-03-08T17:31:45.288Z,1.15
2018-03-08T17:34:12.685Z,1.20
2018-03-08T17:36:40.093Z,1.40
2018-03-08T17:39:07.489Z,1.20
2018-03-08T17:41:34.897Z,1.50
2018-03-08T17:44:02.299Z,1.20
2018-03-08T17:46:29.718Z,1.40
2018-03-08T17:48:57.116Z,1.50
2018-03-08T17:51:24.519Z,1.40
2018-03-08T17:53:51.915Z,1.30
2018-03-08T17:56:19.658Z,1.40
2018-03-08T17:58:47.046Z,2.13
2018-03-08T18:01:14.458Z,1.60
2018-03-08T18:03:41.850Z,1.60
2018-03-08T18:06:09.249Z,1.63
2018-03-08T18:08:36.634Z,1.90
2018-03-08T18:11:04.953Z,1.57
2018-03-08T18:13:33.058Z,2.00
2018-03-08T18:16:00.458Z,3.37
2018-03-08T18:18:27.858Z,2.63
2018-03-08T18:20:55.769Z,1.70
2018-03-08T18:23:23.166Z,1.70
2018-03-08T18:25:50.568Z,2.00
2018-03-08T18:28:18.034Z,5.67
2018-03-08T18:30:45.442Z,3.43
2018-03-08T18:33:12.850Z,5.10
2018-03-08T18:35:40.242Z,5.80
2018-03-08T18:38:08.094Z,4.47
2018-03-08T18:40:35.491Z,5.40
2018-03-08T18:43:02.899Z,5.33
2018-03-08T18:45:30.306Z,4.03
2018-03-08T18:47:58.648Z,15.70
2018-03-08T18:50:26.079Z,1.70
2018-03-08T18:52:53.457Z,1.90
2018-03-08T18:55:20.854Z,1.90
2018-03-08T18:57:48.261Z,2.27
2018-03-08T19:00:15.677Z,2.67
2018-03-08T19:02:43.074Z,2.90
2018-03-08T19:05:10.466Z,3.07
2018-03-08T19:07:37.874Z,4.03
2018-03-08T19:10:05.282Z,3.58
2018-03-08T19:12:32.729Z,2.63
2018-03-08T19:15:00.121Z,2.00
2018-03-08T19:17:27.533Z,1.90
2018-03-08T19:19:54.959Z,2.10
2018-03-08T19:22:22.358Z,2.27
2018-03-08T19:24:49.761Z,1.80
2018-03-08T19:27:17.163Z,2.03
2018-03-08T19:29:44.553Z,1.90
2018-03-08T19:32:11.955Z,1.67
2018-03-08T19:34:39.354Z,2.00
2018-03-08T19:37:06.752Z,1.93
2018-03-08T19:39:34.157Z,1.73
2018-03-08T19:42:01.553Z,2.40
2018-03-08T19:44:29.083Z,2.00
2018-03-08T19:46:57.240Z,2.20
2018-03-08T19:49:24.653Z,2.70
2018-03-08T19:51:52.049Z,2.40
2018-03-08T19:54:19.564Z,2.00
2018-03-08T19:56:46.953Z,1.70
2018-03-08T19:59:14.535Z,1.80
2018-03-08T20:01:41.957Z,1.80
2018-03-08T20:04:09.440Z,2.10
2018-03-08T20:06:36.846Z,1.90
2018-03-08T20:09:04.265Z,1.50
2018-03-08T20:11:32.186Z,1.65
2018-03-08T20:13:59.663Z,1.30
2018-03-08T20:16:27.300Z,1.37
2018-03-08T20:18:54.730Z,1.30
2018-03-08T20:21:22.120Z,1.10
2018-03-08T20:23:49.568Z,1.00
2018-03-08T20:26:16.959Z,1.17
2018-03-08T20:28:44.385Z,1.23
2018-03-08T20:31:11.785Z,1.33
2018-03-08T20:33:39.406Z,1.40
2018-03-08T20:36:06.801Z,1.23
2018-03-08T20:38:34.211Z,1.27
2018-03-08T20:41:01.600Z,1.50
2018-03-08T20:43:28.993Z,1.70
2018-03-08T20:45:56.411Z,1.50
2018-03-08T20:48:23.793Z,2.63
2018-03-08T20:50:51.202Z,1.57
2018-03-08T20:53:18.878Z,2.30
2018-03-08T20:55:46.292Z,1.60
2018-03-08T20:58:13.682Z,1.40
2018-03-08T21:00:41.081Z,1.40
2018-03-08T21:03:08.485Z,1.70
2018-03-08T21:05:35.889Z,1.30
2018-03-08T21:08:04.017Z,1.33
2018-03-08T21:10:31.427Z,1.40
2018-03-08T21:12:58.837Z,1.30
2018-03-08T21:15:26.254Z,1.13
2018-03-08T21:17:53.645Z,1.10
2018-03-08T21:20:21.069Z,1.40
2018-03-08T21:22:48.460Z,1.30
2018-03-08T21:25:15.870Z,1.30
2018-03-08T21:27:43.272Z,1.80
2018-03-08T21:30:10.677Z,1.60
2018-03-08T21:32:38.085Z,1.30
2018-03-08T21:35:05.889Z,1.48
2018-03-08T21:37:33.289Z,1.33
2018-03-08T21:40:00.691Z,1.50
2018-03-08T21:42:28.089Z,1.80
2018-03-08T21:44:55.493Z,1.83
2018-03-08T21:47:22.891Z,1.80
2018-03-08T21:49:50.293Z,2.05
2018-03-08T21:52:17.704Z,2.20
2018-03-08T21:54:45.105Z,2.77
2018-03-08T21:57:12.514Z,6.13
2018-03-08T22:02:37.648Z,8.27
2018-03-08T22:05:05.051Z,8.07
2018-03-08T22:07:32.459Z,8.40
2018-03-08T22:09:59.865Z,7.33
2018-03-08T22:12:27.278Z,7.87
2018-03-08T22:14:54.678Z,8.63
2018-03-08T22:17:22.090Z,7.40
2018-03-08T22:19:49.490Z,7.27
2018-03-08T22:22:16.906Z,7.40
2018-03-08T22:24:44.301Z,5.47
2018-03-08T22:27:11.712Z,4.27
2018-03-08T22:29:39.113Z,5.10
2018-03-08T22:32:06.531Z,4.10
2018-03-08T22:34:33.927Z,4.20
2018-03-08T22:37:01.341Z,3.90
2018-03-08T22:39:28.738Z,3.30
2018-03-08T22:41:56.154Z,2.93
2018-03-08T22:44:23.569Z,2.47
2018-03-08T22:46:50.966Z,2.62
2018-03-08T22:49:18.365Z,2.50
2018-03-08T22:51:45.774Z,2.43
2018-03-08T22:54:13.177Z,2.40
2018-03-08T22:56:40.583Z,2.20
2018-03-08T22:59:07.990Z,1.80
2018-03-08T23:04:54.619Z,1.70
2018-03-08T23:07:22.033Z,1.60
2018-03-08T23:09:49.429Z,2.20
2018-03-08T23:12:16.853Z,1.50
2018-03-08T23:14:44.253Z,1.50
2018-03-08T23:17:11.653Z,1.30
2018-03-08T23:19:39.053Z,1.20
2018-03-08T23:22:06.470Z,1.00
2018-03-08T23:24:33.869Z,1.20
2018-03-08T23:27:01.287Z,1.07
2018-03-08T23:29:28.681Z,1.23
2018-03-08T23:31:56.093Z,1.00
2018-03-08T23:34:23.494Z,1.30
2018-03-08T23:36:50.893Z,1.40
2018-03-08T23:39:18.310Z,1.00
2018-03-08T23:41:45.713Z,1.20
2018-03-08T23:44:13.117Z,1.30
2018-03-08T23:46:40.541Z,1.10
2018-03-08T23:49:07.945Z,1.30
2018-03-08T23:51:35.350Z,1.00
2018-03-08T23:54:02.757Z,1.05
2018-03-08T23:56:30.167Z,1.10
2018-03-08T23:58:57.587Z,0.90
